Time;durP1;ratioP1;P1;durP2;ratioP2;P2;SDS_P1;SDS_P2;PMS_P1;PMS_P2;Temp;Humidity;BMP_temperature;BMP_pressure;BME280_temperature;BME280_humidity;BME280_pressure;Samples;Min_cycle;Max_cycle;Signal;HPM_P1;HPM_P2
2022/03/04 00:00:31;;;;;;;34.13;20.48;;;;;;;3.18;67.72;99448.16;4962724;28;20850;-76
2022/03/04 00:02:58;;;;;;;24.75;17.75;;;;;;;2.85;69.34;99449.13;4953299;28;20218;-76
2022/03/04 00:05:25;;;;;;;25.58;17.88;;;;;;;2.88;69.29;99442.84;4960972;28;20227;-77
2022/03/04 00:07:52;;;;;;;28.85;18.73;;;;;;;2.80;69.53;99458.13;4961826;28;20554;-77
2022/03/04 00:10:19;;;;;;;28.55;18.23;;;;;;;2.72;69.72;99456.56;4956591;28;20284;-77
2022/03/04 00:12:45;;;;;;;27.35;19.17;;;;;;;2.75;69.87;99450.28;4959798;28;20192;-77
2022/03/04 00:15:12;;;;;;;24.63;17.77;;;;;;;2.75;69.93;99463.59;4961397;28;20230;-77
2022/03/04 00:17:40;;;;;;;27.92;17.73;;;;;;;2.71;70.05;99462.81;4959475;28;20633;-77
2022/03/04 00:20:09;;;;;;;29.17;18.70;;;;;;;2.62;70.74;99462.19;4956034;28;20208;-75
2022/03/04 00:22:36;;;;;;;31.23;20.38;;;;;;;2.66;70.82;99462.06;4947114;28;20209;-76
2022/03/04 00:25:03;;;;;;;30.85;19.27;;;;;;;2.65;70.62;99470.09;4953271;28;20217;-76
2022/03/04 00:27:30;;;;;;;26.80;18.05;;;;;;;2.49;71.47;99472.31;4960859;28;20201;-76
2022/03/04 00:29:57;;;;;;;28.90;18.15;;;;;;;2.64;69.93;99471.00;4961128;28;20190;-77
2022/03/04 00:32:23;;;;;;;24.95;17.52;;;;;;;2.54;70.38;99473.03;4964459;28;20223;-77
2022/03/04 00:34:52;;;;;;;26.67;17.90;;;;;;;2.57;71.49;99467.63;4958986;28;20195;-77
2022/03/04 00:37:18;;;;;;;28.23;17.75;;;;;;;2.52;71.27;99474.88;4964634;28;20206;-77
2022/03/04 00:39:45;;;;;;;26.70;17.65;;;;;;;2.38;71.34;99471.72;4960977;28;20213;-77
2022/03/04 00:42:12;;;;;;;25.15;16.60;;;;;;;2.38;70.44;99474.38;4955794;28;20228;-77
2022/03/04 00:44:39;;;;;;;23.02;16.42;;;;;;;2.32;70.96;99471.88;4964433;28;20689;-77
2022/03/04 00:47:06;;;;;;;26.38;15.95;;;;;;;2.21;71.89;99478.31;4963316;28;20283;-76
2022/03/04 00:49:34;;;;;;;27.05;16.42;;;;;;;2.08;71.65;99483.09;4962457;28;20195;-77
2022/03/04 00:52:02;;;;;;;28.00;17.20;;;;;;;2.09;70.65;99476.00;4960599;28;20221;-76
2022/03/04 00:54:29;;;;;;;24.50;16.75;;;;;;;1.99;71.47;99475.38;4975541;28;20195;-77
2022/03/04 00:56:55;;;;;;;26.50;17.08;;;;;;;2.05;71.09;99474.31;4967257;28;20231;-77
2022/03/04 00:59:22;;;;;;;26.67;17.48;;;;;;;2.06;70.93;99473.44;4968082;28;20617;-77
2022/03/04 01:01:48;;;;;;;25.77;17.23;;;;;;;2.02;70.85;99477.94;4955462;28;20300;-76
2022/03/04 01:04:15;;;;;;;24.08;16.08;;;;;;;1.82;71.38;99477.56;4967985;28;20280;-76
2022/03/04 01:06:42;;;;;;;25.85;16.90;;;;;;;1.77;72.70;99468.84;4974125;28;20222;-76
2022/03/04 01:09:10;;;;;;;27.83;16.77;;;;;;;1.81;72.84;99466.06;4964691;28;20694;-77
2022/03/04 01:11:37;;;;;;;22.90;15.30;;;;;;;1.76;73.19;99467.94;4964130;28;20203;-77
2022/03/04 01:14:05;;;;;;;28.60;16.75;;;;;;;1.88;73.95;99470.31;4966238;28;20197;-76
2022/03/04 01:16:31;;;;;;;24.60;17.88;;;;;;;1.80;74.64;99464.31;4969057;28;20282;-76
2022/03/04 01:18:58;;;;;;;29.55;17.02;;;;;;;1.68;75.36;99464.63;4965170;28;20238;-76
2022/03/04 01:21:24;;;;;;;25.88;15.77;;;;;;;1.74;75.42;99459.19;4964009;28;20389;-77
2022/03/04 01:23:51;;;;;;;23.88;16.77;;;;;;;1.78;75.41;99470.56;4964053;28;20264;-77
2022/03/04 01:26:19;;;;;;;26.75;17.30;;;;;;;1.67;76.51;99463.75;4961313;28;20222;-77
2022/03/04 01:28:46;;;;;;;24.88;17.30;;;;;;;1.73;76.04;99457.41;4967072;28;20202;-76
2022/03/04 01:31:12;;;;;;;24.88;16.25;;;;;;;1.61;77.31;99461.25;4968712;28;20264;-76
2022/03/04 01:33:39;;;;;;;24.23;16.80;;;;;;;1.51;78.67;99459.69;4970792;28;20192;-76
2022/03/04 01:36:07;;;;;;;25.23;16.20;;;;;;;1.50;78.51;99451.81;4967329;28;20547;-76
2022/03/04 01:38:33;;;;;;;28.20;16.88;;;;;;;1.49;77.52;99456.22;4960047;28;20193;-77
2022/03/04 01:41:00;;;;;;;26.88;17.13;;;;;;;1.41;77.23;99458.19;4963781;28;20503;-76
2022/03/04 01:43:28;;;;;;;24.58;15.10;;;;;;;1.38;77.71;99451.19;4963526;28;20628;-76
2022/03/04 01:45:54;;;;;;;28.40;17.75;;;;;;;1.41;78.51;99455.53;4964380;28;20312;-76
2022/03/04 01:48:22;;;;;;;27.23;16.70;;;;;;;1.35;78.71;99450.34;4966965;28;20283;-77
2022/03/04 01:50:49;;;;;;;24.65;15.98;;;;;;;1.34;79.28;99449.50;4958708;28;20199;-76
2022/03/04 01:53:16;;;;;;;25.02;16.20;;;;;;;1.44;78.94;99445.69;4966844;28;20721;-77
2022/03/04 01:55:42;;;;;;;25.88;16.63;;;;;;;1.57;78.44;99450.75;4962842;28;20189;-77
2022/03/04 01:58:09;;;;;;;26.27;16.65;;;;;;;1.65;77.25;99452.31;4961195;28;20531;-77
2022/03/04 02:00:37;;;;;;;22.17;15.98;;;;;;;1.60;77.43;99448.88;4955555;28;20287;-77
2022/03/04 02:03:10;;;;;;;22.23;15.57;;;;;;;1.66;76.98;99453.16;4969968;28;20651;-77
2022/03/04 02:05:37;;;;;;;26.42;15.75;;;;;;;1.66;76.99;99454.03;4964080;28;20657;-77
2022/03/04 02:08:04;;;;;;;23.92;16.17;;;;;;;1.77;76.40;99448.47;4966224;28;20295;-77
2022/03/04 02:10:31;;;;;;;23.83;16.05;;;;;;;1.79;75.46;99454.63;4965883;28;20198;-77
2022/03/04 02:12:58;;;;;;;25.33;15.98;;;;;;;1.86;74.94;99450.91;4958090;28;20201;-77
2022/03/04 02:15:24;;;;;;;26.83;16.33;;;;;;;1.74;75.87;99452.97;4959471;28;20539;-76
2022/03/04 02:17:52;;;;;;;22.60;16.73;;;;;;;1.66;77.14;99453.16;4943286;29;20201;-77
2022/03/04 02:20:21;;;;;;;23.67;17.23;;;;;;;1.74;77.00;99452.97;4936461;29;20186;-76
2022/03/04 02:22:49;;;;;;;21.95;15.00;;;;;;;1.67;76.89;99457.56;4957439;28;20214;-76
2022/03/04 02:25:16;;;;;;;24.35;16.65;;;;;;;1.57;76.84;99466.66;4969048;28;20194;-76
2022/03/04 02:27:43;;;;;;;27.63;17.60;;;;;;;1.40;77.67;99449.38;4963221;28;20196;-77
2022/03/04 02:30:10;;;;;;;25.40;15.85;;;;;;;1.50;77.14;99450.00;4963648;28;20576;-76
2022/03/04 02:32:37;;;;;;;21.98;15.20;;;;;;;1.32;78.59;99448.66;4964070;28;20315;-76
2022/03/04 02:35:04;;;;;;;24.90;15.15;;;;;;;1.43;78.17;99451.94;4962639;28;20189;-76
2022/03/04 02:37:31;;;;;;;22.23;13.63;;;;;;;1.77;75.81;99451.13;4963814;28;20287;-76
2022/03/04 02:39:59;;;;;;;22.60;13.90;;;;;;;2.08;73.51;99447.69;4961017;28;20268;-76
2022/03/04 02:42:25;;;;;;;21.65;15.00;;;;;;;2.03;72.36;99442.47;4964475;28;20220;-77
2022/03/04 02:44:52;;;;;;;20.55;14.35;;;;;;;2.02;72.34;99448.72;4969125;28;20275;-77
2022/03/04 02:47:19;;;;;;;19.67;13.10;;;;;;;2.13;71.74;99440.47;4962395;28;20560;-76
2022/03/04 02:49:45;;;;;;;23.25;13.43;;;;;;;2.13;71.61;99437.81;4953792;28;20224;-77
2022/03/04 02:52:12;;;;;;;20.88;16.33;;;;;;;1.92;74.64;99441.03;4968302;28;20195;-76
2022/03/04 02:54:38;;;;;;;26.05;17.05;;;;;;;1.46;78.69;99449.19;4955676;28;20192;-77
2022/03/04 02:57:07;;;;;;;24.65;17.17;;;;;;;1.41;79.96;99447.56;4954711;28;20591;-77
2022/03/04 02:59:33;;;;;;;23.77;16.77;;;;;;;1.19;82.35;99444.53;4969914;28;21597;-77
2022/03/04 03:02:00;;;;;;;22.38;16.20;;;;;;;1.18;82.63;99446.31;4961811;28;20557;-77
2022/03/04 03:04:26;;;;;;;26.13;17.33;;;;;;;1.03;83.11;99442.22;4964240;28;20220;-76
2022/03/04 03:06:53;;;;;;;22.83;16.98;;;;;;;0.97;84.03;99438.81;4965538;28;20192;-76
2022/03/04 03:09:20;;;;;;;25.20;16.23;;;;;;;1.16;82.57;99440.16;4964669;28;20196;-77
2022/03/04 03:11:46;;;;;;;21.83;16.90;;;;;;;1.20;82.41;99436.56;4954552;28;20276;-76
2022/03/04 03:14:14;;;;;;;28.23;16.90;;;;;;;1.12;83.43;99440.28;4961368;28;20662;-76
2022/03/04 03:16:41;;;;;;;25.13;16.95;;;;;;;1.09;83.04;99446.53;4962036;28;20196;-76
2022/03/04 03:19:08;;;;;;;21.58;15.70;;;;;;;1.05;84.81;99442.19;4961918;28;20594;-77
2022/03/04 03:21:35;;;;;;;24.65;16.08;;;;;;;1.18;83.10;99445.44;4956688;28;20189;-76
2022/03/04 03:24:01;;;;;;;25.65;16.50;;;;;;;1.16;82.71;99441.97;4968580;28;20306;-77
2022/03/04 03:26:28;;;;;;;24.00;15.18;;;;;;;1.17;82.74;99449.00;4959718;28;20700;-76
2022/03/04 03:28:54;;;;;;;21.58;14.30;;;;;;;1.22;83.48;99444.44;4967197;28;20289;-76
2022/03/04 03:31:22;;;;;;;25.60;15.70;;;;;;;1.08;83.58;99441.25;4969339;28;20262;-76
2022/03/04 03:33:49;;;;;;;22.67;15.43;;;;;;;1.35;81.92;99439.75;4954509;28;20619;-75
2022/03/04 03:36:16;;;;;;;20.67;14.50;;;;;;;1.38;81.89;99444.97;4969224;28;20604;-76
2022/03/04 03:38:42;;;;;;;23.20;14.90;;;;;;;1.43;81.49;99449.28;4958967;28;20376;-76
2022/03/04 03:41:09;;;;;;;23.83;14.40;;;;;;;1.37;80.74;99443.25;4965654;28;20715;-76
2022/03/04 03:43:36;;;;;;;23.23;15.15;;;;;;;1.23;82.39;99447.06;4956410;28;20215;-76
2022/03/04 03:46:02;;;;;;;21.95;16.13;;;;;;;1.18;82.77;99450.75;4964262;28;20279;-76
2022/03/04 03:48:30;;;;;;;21.45;14.68;;;;;;;1.12;82.94;99449.09;4946819;28;20699;-76
2022/03/04 03:50:57;;;;;;;24.08;16.55;;;;;;;1.45;81.78;99449.25;4960788;28;20189;-78
2022/03/04 03:53:24;;;;;;;25.52;15.00;;;;;;;1.35;81.91;99448.56;4961480;28;20601;-76
2022/03/04 03:55:50;;;;;;;27.48;14.90;;;;;;;1.50;81.21;99447.34;4961035;28;20292;-76
2022/03/04 03:58:17;;;;;;;28.05;14.93;;;;;;;1.48;80.34;99435.91;4955688;28;20205;-76
2022/03/04 04:00:44;;;;;;;24.33;15.23;;;;;;;1.51;80.10;99445.56;4958017;28;20199;-76
2022/03/04 04:03:10;;;;;;;22.45;14.27;;;;;;;1.44;79.61;99448.34;4961221;28;20274;-76
2022/03/04 04:05:38;;;;;;;25.88;15.45;;;;;;;1.48;79.65;99443.00;4961346;28;20652;-76
2022/03/04 04:08:05;;;;;;;20.50;13.82;;;;;;;1.44;79.84;99444.84;4961910;28;20203;-76
2022/03/04 04:10:32;;;;;;;20.95;14.48;;;;;;;1.41;80.43;99442.28;4964605;28;20591;-77
2022/03/04 04:12:58;;;;;;;22.77;15.15;;;;;;;1.43;79.89;99446.63;4964127;28;20275;-76
2022/03/04 04:15:25;;;;;;;23.77;15.07;;;;;;;1.51;80.01;99440.25;4958731;28;20296;-76
2022/03/04 04:17:51;;;;;;;20.15;14.75;;;;;;;1.56;79.47;99441.91;4960735;28;20193;-76
2022/03/04 04:20:18;;;;;;;20.98;13.35;;;;;;;1.81;77.47;99439.53;4965633;28;20280;-77
2022/03/04 04:22:46;;;;;;;22.48;14.32;;;;;;;1.76;77.41;99446.72;4967201;28;20514;-77
2022/03/04 04:25:13;;;;;;;24.35;15.23;;;;;;;1.75;78.22;99444.97;4967398;28;20290;-76
2022/03/04 04:27:39;;;;;;;23.85;15.05;;;;;;;1.73;77.37;99448.59;4961914;28;20195;-78
2022/03/04 04:30:07;;;;;;;22.63;14.07;;;;;;;1.58;78.30;99445.41;4960152;28;20291;-77
2022/03/04 04:32:34;;;;;;;24.33;14.00;;;;;;;1.82;77.01;99443.91;4961414;28;20228;-76
2022/03/04 04:35:01;;;;;;;23.40;14.60;;;;;;;1.83;76.53;99448.31;4957566;28;20628;-76
2022/03/04 04:37:27;;;;;;;24.00;14.20;;;;;;;1.82;76.50;99449.22;4964786;28;20196;-76
2022/03/04 04:39:55;;;;;;;21.42;15.38;;;;;;;1.87;76.24;99447.31;4965218;28;20204;-76
2022/03/04 04:42:22;;;;;;;24.13;15.25;;;;;;;1.95;75.25;99440.97;4969837;28;20527;-76
2022/03/04 04:44:49;;;;;;;24.67;16.00;;;;;;;2.06;74.52;99441.56;4967313;28;20213;-76
2022/03/04 04:47:16;;;;;;;22.40;14.82;;;;;;;2.05;73.60;99443.31;4955744;28;20284;-76
2022/03/04 04:49:43;;;;;;;21.67;14.80;;;;;;;2.19;72.44;99442.09;4957365;28;20245;-77
2022/03/04 04:52:10;;;;;;;26.25;15.02;;;;;;;2.27;71.65;99440.13;4964577;28;20686;-76
2022/03/04 04:54:37;;;;;;;19.20;13.55;;;;;;;2.23;71.54;99436.66;4964105;28;20224;-76
2022/03/04 04:57:05;;;;;;;19.17;13.15;;;;;;;2.14;72.37;99436.91;4966300;28;20609;-76
2022/03/04 04:59:32;;;;;;;23.27;15.27;;;;;;;1.96;73.78;99448.88;4967362;28;20284;-76
2022/03/04 05:01:59;;;;;;;31.52;15.55;;;;;;;2.03;73.83;99447.78;4956409;29;20199;-77
2022/03/04 05:04:25;;;;;;;24.88;15.20;;;;;;;1.82;74.56;99449.22;4956400;29;20211;-77
2022/03/04 05:06:52;;;;;;;24.83;15.10;;;;;;;2.09;72.97;99450.31;4957645;28;20207;-76
2022/03/04 05:09:19;;;;;;;30.70;16.27;;;;;;;1.73;77.78;99454.75;4967618;28;20187;-76
2022/03/04 05:11:45;;;;;;;22.60;14.77;;;;;;;1.84;77.86;99458.03;4967158;28;20202;-76
2022/03/04 05:14:13;;;;;;;25.23;16.25;;;;;;;1.71;76.71;99464.53;4963275;28;20652;-77
2022/03/04 05:16:40;;;;;;;23.05;15.63;;;;;;;1.83;75.08;99460.69;4971703;28;20564;-77
2022/03/04 05:19:07;;;;;;;24.77;14.93;;;;;;;1.63;77.41;99469.19;4957842;28;20632;-77
2022/03/04 05:21:34;;;;;;;23.98;15.80;;;;;;;1.53;78.49;99472.94;4963734;28;20199;-77
2022/03/04 05:24:02;;;;;;;25.95;16.42;;;;;;;1.56;79.45;99483.47;4963949;28;20224;-77
2022/03/04 05:26:30;;;;;;;23.75;15.55;;;;;;;1.54;80.20;99488.84;4971266;28;20200;-77
2022/03/04 05:28:57;;;;;;;34.78;16.17;;;;;;;1.46;81.25;99491.66;4959109;28;20184;-76
2022/03/04 05:31:25;;;;;;;29.92;16.17;;;;;;;1.17;82.58;99492.28;4970719;28;20318;-76
2022/03/04 05:33:52;;;;;;;23.52;15.18;;;;;;;1.37;82.70;99493.66;4963230;28;20216;-77
2022/03/04 05:36:20;;;;;;;28.30;15.90;;;;;;;1.31;83.67;99496.44;4955200;28;20694;-76
2022/03/04 05:38:47;;;;;;;27.52;15.82;;;;;;;1.18;84.71;99498.50;4965625;28;20550;-77
2022/03/04 05:41:15;;;;;;;27.77;16.70;;;;;;;1.33;81.01;99508.75;4966768;28;20203;-77
2022/03/04 05:43:41;;;;;;;25.58;16.08;;;;;;;1.29;81.96;99512.41;4966371;28;20702;-77
2022/03/04 05:46:08;;;;;;;25.70;16.77;;;;;;;1.17;82.98;99504.69;4969131;28;20189;-77
2022/03/04 05:48:36;;;;;;;25.23;16.05;;;;;;;1.53;80.39;99518.06;4964318;28;20236;-77
2022/03/04 05:51:04;;;;;;;24.10;15.38;;;;;;;1.65;77.80;99512.44;4964872;28;20524;-76
2022/03/04 05:53:30;;;;;;;27.58;16.40;;;;;;;1.76;77.03;99518.38;4971630;28;20195;-76
2022/03/04 05:55:57;;;;;;;29.58;15.48;;;;;;;1.83;76.06;99522.66;4955478;28;20284;-75
2022/03/04 05:58:24;;;;;;;25.33;16.15;;;;;;;1.72;77.40;99519.41;4962920;28;20205;-76
2022/03/04 06:00:50;;;;;;;25.65;16.65;;;;;;;1.78;77.11;99526.31;4955843;28;20201;-76
2022/03/04 06:03:17;;;;;;;25.98;16.52;;;;;;;1.86;76.19;99532.34;4958234;28;20227;-77
2022/03/04 06:05:45;;;;;;;24.15;15.80;;;;;;;1.85;76.64;99527.91;4972159;28;20211;-76
2022/03/04 06:08:12;;;;;;;23.75;16.08;;;;;;;1.67;79.57;99522.16;4959474;28;20188;-77
2022/03/04 06:10:38;;;;;;;28.48;17.33;;;;;;;1.87;76.43;99529.63;4963480;28;20197;-76
2022/03/04 06:13:05;;;;;;;25.90;16.30;;;;;;;1.86;78.66;99530.56;4965302;28;20206;-77
2022/03/04 06:15:32;;;;;;;28.70;17.17;;;;;;;1.96;77.37;99532.97;4962632;28;20219;-77
2022/03/04 06:17:58;;;;;;;24.88;15.90;;;;;;;1.87;77.85;99534.94;4955070;28;20188;-77
2022/03/04 06:20:26;;;;;;;24.27;16.55;;;;;;;1.85;77.24;99541.19;4969429;28;20551;-77
2022/03/04 06:22:54;;;;;;;31.23;17.90;;;;;;;1.86;78.64;99535.84;4958804;28;20200;-76
2022/03/04 06:25:21;;;;;;;36.72;20.60;;;;;;;1.99;78.26;99548.81;4962039;28;20295;-77
2022/03/04 06:27:58;;;;;;;32.53;19.10;;;;;;;2.01;77.12;99549.66;4966077;28;20224;-76
2022/03/04 06:30:32;;;;;;;33.35;17.63;;;;;;;2.02;76.98;99546.13;4964930;28;20239;-77
2022/03/04 06:35:40;;;;;;;30.08;17.73;;;;;;;2.26;73.83;99555.25;4970360;28;20553;-77
2022/03/04 06:38:08;;;;;;;26.67;17.38;;;;;;;2.33;73.36;99564.84;4963039;28;20279;-77
2022/03/04 06:40:36;;;;;;;26.77;17.98;;;;;;;2.30;74.68;99557.78;4962382;28;20646;-78
2022/03/04 06:43:03;;;;;;;25.67;17.13;;;;;;;2.36;73.60;99559.44;4959477;28;20296;-76
2022/03/04 06:45:29;;;;;;;26.02;17.67;;;;;;;2.27;74.12;99560.53;4953850;28;20236;-76
2022/03/04 06:47:56;;;;;;;28.92;19.45;;;;;;;2.32;73.47;99556.91;4964152;28;20191;-78
2022/03/04 06:50:23;;;;;;;31.38;17.40;;;;;;;2.24;73.15;99565.94;4964817;28;20266;-76
2022/03/04 06:52:51;;;;;;;30.63;18.27;;;;;;;2.29;73.19;99566.69;4968273;28;20191;-76
2022/03/04 06:55:19;;;;;;;31.55;18.38;;;;;;;2.03;74.79;99572.63;4956804;28;20644;-76
2022/03/04 06:57:48;;;;;;;28.45;18.13;;;;;;;2.07;76.33;99581.41;4954594;28;20283;-76
2022/03/04 07:00:14;;;;;;;29.75;19.30;;;;;;;2.18;74.97;99571.41;4962914;28;20213;-77
2022/03/04 07:02:41;;;;;;;26.48;16.83;;;;;;;2.19;74.46;99573.13;4958969;28;20221;-77
2022/03/04 07:05:11;;;;;;;27.55;18.20;;;;;;;2.36;73.58;99575.38;4958910;28;20719;-76
2022/03/04 07:07:38;;;;;;;29.20;18.58;;;;;;;2.25;72.87;99582.75;4959946;28;20185;-77
2022/03/04 07:10:05;;;;;;;27.45;17.63;;;;;;;2.38;72.22;99578.00;4961133;28;20300;-76
2022/03/04 07:12:33;;;;;;;28.85;18.80;;;;;;;2.39;72.63;99585.06;4962218;28;20611;-76
2022/03/04 07:15:00;;;;;;;31.10;19.10;;;;;;;2.34;73.10;99581.66;4957948;28;20272;-77
2022/03/04 07:17:27;;;;;;;30.90;20.30;;;;;;;2.36;73.01;99575.38;4970528;28;20186;-77
2022/03/04 07:19:53;;;;;;;28.10;19.77;;;;;;;2.62;71.81;99581.81;4955544;28;20291;-75
2022/03/04 07:22:20;;;;;;;28.45;18.55;;;;;;;2.69;71.07;99580.72;4959466;28;20675;-77
2022/03/04 07:24:46;;;;;;;31.73;20.38;;;;;;;2.67;70.82;99578.13;4958111;28;20293;-76
2022/03/04 07:27:13;;;;;;;27.50;17.80;;;;;;;2.71;70.34;99576.25;4962304;28;20564;-77
2022/03/04 07:29:41;;;;;;;30.85;20.77;;;;;;;2.67;71.21;99586.09;4955363;28;20193;-76
2022/03/04 07:32:08;;;;;;;32.33;19.90;;;;;;;2.66;70.87;99578.16;4961864;28;20229;-77
2022/03/04 07:34:35;;;;;;;29.90;20.30;;;;;;;2.72;70.98;99576.22;4964089;28;20202;-77
2022/03/04 07:37:02;;;;;;;33.38;22.10;;;;;;;2.76;70.48;99582.34;4964215;28;20189;-76
2022/03/04 07:39:28;;;;;;;32.60;19.08;;;;;;;2.72;70.58;99586.00;4961722;28;20219;-78
2022/03/04 07:41:55;;;;;;;31.08;20.92;;;;;;;2.65;70.40;99587.94;4964223;28;20535;-77
2022/03/04 07:44:22;;;;;;;32.80;19.85;;;;;;;2.57;70.97;99581.94;4956146;28;20221;-77
2022/03/04 07:46:50;;;;;;;25.40;18.85;;;;;;;2.73;70.55;99590.38;4952977;28;20211;-76
2022/03/04 07:49:16;;;;;;;29.77;18.50;;;;;;;2.54;70.39;99590.00;4953155;28;20199;-76
2022/03/04 07:51:43;;;;;;;28.00;18.65;;;;;;;2.56;71.22;99587.31;4956633;28;20260;-77
2022/03/04 07:54:10;;;;;;;31.02;19.65;;;;;;;2.80;70.17;99593.75;4953047;29;20220;-76
2022/03/04 07:56:37;;;;;;;36.30;20.35;;;;;;;2.88;70.46;99597.94;4952599;28;20703;-76
2022/03/04 07:59:04;;;;;;;31.67;21.50;;;;;;;2.98;69.45;99598.56;4954349;28;20281;-76
2022/03/04 08:01:31;;;;;;;34.75;23.42;;;;;;;3.13;68.76;99603.47;4961041;28;20554;-76
2022/03/04 08:03:59;;;;;;;31.58;20.15;;;;;;;3.28;67.19;99603.97;4961689;28;20214;-77
2022/03/04 08:06:26;;;;;;;29.75;20.80;;;;;;;3.42;66.81;99604.44;4958066;28;20196;-77
2022/03/04 08:08:52;;;;;;;32.28;20.02;;;;;;;3.40;66.28;99606.28;4959870;28;20198;-76
2022/03/04 08:11:19;;;;;;;29.63;18.92;;;;;;;3.44;65.20;99610.59;4963951;28;20205;-76
2022/03/04 08:13:46;;;;;;;28.73;20.05;;;;;;;3.36;65.26;99604.63;4966889;28;20230;-76
2022/03/04 08:16:12;;;;;;;29.75;20.40;;;;;;;3.32;66.14;99618.91;4952240;29;20283;-75
2022/03/04 08:18:39;;;;;;;30.40;20.20;;;;;;;3.39;65.16;99617.81;4961683;28;20648;-76
2022/03/04 08:21:08;;;;;;;32.25;19.80;;;;;;;3.40;64.71;99616.94;4952754;29;20217;-77
2022/03/04 08:23:34;;;;;;;31.58;20.23;;;;;;;3.40;63.99;99611.59;4939734;29;20200;-78
2022/03/04 08:26:03;;;;;;;32.35;20.65;;;;;;;3.47;64.38;99621.16;4952414;29;20666;-78
2022/03/04 08:28:30;;;;;;;30.95;20.15;;;;;;;3.51;63.38;99624.63;4952396;29;20281;-76
2022/03/04 08:30:57;;;;;;;32.30;20.73;;;;;;;3.42;64.11;99623.09;4954348;28;20243;-76
2022/03/04 08:33:24;;;;;;;32.13;19.65;;;;;;;3.47;62.59;99629.13;4952516;29;20280;-76
2022/03/04 08:35:51;;;;;;;33.13;19.55;;;;;;;3.69;62.32;99628.53;4952330;28;20751;-76
2022/03/04 08:38:20;;;;;;;27.98;18.70;;;;;;;3.64;61.23;99625.09;4952578;29;20195;-76
2022/03/04 08:40:47;;;;;;;39.72;22.42;;;;;;;3.80;61.12;99628.19;4951975;29;20304;-76
2022/03/04 08:43:14;;;;;;;27.70;19.05;;;;;;;3.90;60.56;99622.53;4952484;29;20192;-76
2022/03/04 08:45:41;;;;;;;31.55;20.13;;;;;;;3.87;59.97;99630.63;4951662;29;20213;-76
2022/03/04 08:48:10;;;;;;;32.17;20.85;;;;;;;3.92;59.90;99628.69;4951968;29;20191;-77
2022/03/04 08:50:37;;;;;;;29.50;19.63;;;;;;;4.18;58.52;99632.34;4940464;29;20197;-77
2022/03/04 08:53:03;;;;;;;30.80;19.92;;;;;;;4.25;58.12;99641.91;4950298;29;20611;-76
2022/03/04 08:55:31;;;;;;;32.25;21.20;;;;;;;4.30;57.95;99639.97;4951959;29;20277;-76
2022/03/04 08:58:00;;;;;;;31.98;20.38;;;;;;;4.47;57.82;99644.75;4952433;29;20241;-76
2022/03/04 09:00:28;;;;;;;36.95;21.52;;;;;;;4.56;57.11;99636.44;4951682;29;20236;-75
2022/03/04 09:02:54;;;;;;;33.50;20.75;;;;;;;4.73;56.73;99632.34;4952172;29;20233;-77
2022/03/04 09:05:21;;;;;;;31.55;19.50;;;;;;;4.56;56.68;99647.09;4950803;29;20219;-77
2022/03/04 09:07:50;;;;;;;33.90;20.52;;;;;;;4.57;57.01;99648.88;4948619;28;20595;-76
2022/03/04 09:10:17;;;;;;;30.80;20.40;;;;;;;4.84;56.21;99646.22;4953779;28;20326;-77
2022/03/04 09:12:45;;;;;;;30.92;20.00;;;;;;;5.03;55.21;99638.44;4947873;29;20278;-78
2022/03/04 09:15:12;;;;;;;28.92;21.20;;;;;;;4.79;55.12;99626.78;4954426;29;20207;-77
2022/03/04 09:17:40;;;;;;;28.08;19.92;;;;;;;4.97;54.92;99625.28;4955555;29;20606;-77
2022/03/04 09:20:07;;;;;;;35.45;22.67;;;;;;;5.12;54.20;99631.91;4955980;29;20203;-76
2022/03/04 09:22:34;;;;;;;33.30;22.08;;;;;;;4.95;53.92;99630.69;4955892;29;20204;-77
2022/03/04 09:25:00;;;;;;;31.30;19.92;;;;;;;5.26;53.28;99629.59;4955424;29;20214;-75
2022/03/04 09:27:28;;;;;;;32.80;20.48;;;;;;;5.20;53.00;99635.16;4955649;29;20622;-75
2022/03/04 09:29:55;;;;;;;30.52;20.33;;;;;;;5.30;53.26;99617.03;4955351;29;20201;-76
2022/03/04 09:32:23;;;;;;;32.88;22.67;;;;;;;5.44;52.97;99625.41;4965740;28;20246;-76
2022/03/04 09:34:50;;;;;;;32.00;21.90;;;;;;;5.51;52.64;99632.25;4955696;28;20215;-76
2022/03/04 09:37:17;;;;;;;31.63;19.73;;;;;;;5.53;52.18;99629.53;4955686;29;20189;-76
2022/03/04 09:39:44;;;;;;;36.70;22.30;;;;;;;5.53;51.72;99627.72;4955229;28;20299;-77
2022/03/04 09:42:12;;;;;;;29.90;21.08;;;;;;;5.67;51.38;99629.88;4954880;29;20302;-78
2022/03/04 09:44:40;;;;;;;31.42;20.38;;;;;;;5.84;51.27;99631.94;4955499;29;20350;-78
2022/03/04 09:47:10;;;;;;;32.35;21.15;;;;;;;6.02;50.57;99622.38;4955164;29;20205;-78
2022/03/04 09:49:38;;;;;;;34.60;23.20;;;;;;;6.20;50.00;99623.44;4944822;29;20204;-79
2022/03/04 09:52:06;;;;;;;31.20;20.00;;;;;;;5.95;50.31;99626.22;4955636;29;20192;-77
2022/03/04 09:54:34;;;;;;;31.60;19.98;;;;;;;6.16;49.69;99624.50;4954977;29;20607;-78
2022/03/04 09:57:00;;;;;;;29.70;20.30;;;;;;;6.20;49.54;99618.09;4959784;28;20263;-77
2022/03/04 09:59:27;;;;;;;29.60;20.63;;;;;;;6.26;49.72;99621.41;4974598;28;20290;-76
2022/03/04 10:01:54;;;;;;;31.58;21.98;;;;;;;6.34;49.24;99615.72;4958651;28;20195;-76
2022/03/04 10:04:26;;;;;;;31.65;21.48;;;;;;;6.48;48.80;99613.34;4954909;29;20537;-75
2022/03/04 10:06:53;;;;;;;30.45;21.88;;;;;;;6.75;47.68;99607.78;4966753;28;20645;-77
2022/03/04 10:09:35;;;;;;;32.97;21.27;;;;;;;6.80;47.84;99608.44;4957307;28;20215;-77
2022/03/04 10:12:03;;;;;;;30.10;20.67;;;;;;;7.15;46.99;99608.75;4954842;29;20284;-75
2022/03/04 10:14:30;;;;;;;30.20;20.65;;;;;;;7.26;46.05;99605.63;4955188;28;20211;-76
2022/03/04 10:16:58;;;;;;;30.38;20.65;;;;;;;7.22;46.31;99614.72;4973043;28;20267;-77
2022/03/04 10:19:28;;;;;;;32.30;21.45;;;;;;;7.29;45.97;99614.38;4965627;28;20232;-77
2022/03/04 10:21:57;;;;;;;28.55;19.70;;;;;;;7.24;45.52;99612.84;4954616;29;20192;-76
2022/03/04 10:24:29;;;;;;;35.55;21.90;;;;;;;7.44;44.96;99618.19;4958939;28;20283;-75
2022/03/04 10:26:59;;;;;;;27.38;20.05;;;;;;;7.47;44.77;99614.50;4970257;28;20283;-75
2022/03/04 10:29:28;;;;;;;29.15;20.42;;;;;;;7.64;44.63;99611.03;4955277;29;20290;-75
2022/03/04 10:32:18;;;;;;;32.28;20.42;;;;;;;7.73;44.09;99607.91;4967255;28;20282;-76
2022/03/04 10:34:51;;;;;;;28.95;20.40;;;;;;;7.79;43.99;99607.66;4969814;28;20196;-76
2022/03/04 10:37:19;;;;;;;29.33;19.35;;;;;;;8.08;43.20;99608.94;4973705;28;20188;-77
2022/03/04 10:40:08;;;;;;;33.35;20.35;;;;;;;8.30;42.84;99611.47;4973942;28;20627;-76
2022/03/04 10:42:47;;;;;;;35.92;24.10;;;;;;;8.41;42.27;99604.75;4973563;28;20239;-76
2022/03/04 10:45:17;;;;;;;29.75;20.48;;;;;;;7.86;43.06;99602.88;4973861;28;20295;-76
2022/03/04 10:47:47;;;;;;;30.52;21.15;;;;;;;8.18;42.83;99613.88;4974158;28;20216;-76
2022/03/04 10:50:16;;;;;;;33.88;20.92;;;;;;;8.41;42.38;99607.41;4973597;28;20192;-76
2022/03/04 10:52:51;;;;;;;31.48;20.55;;;;;;;8.69;41.97;99601.56;4973316;28;20631;-76
2022/03/04 10:55:32;;;;;;;35.70;20.98;;;;;;;8.97;41.51;99599.19;4973413;28;20638;-76
2022/03/04 10:58:00;;;;;;;29.48;19.50;;;;;;;8.97;40.85;99599.19;4973600;28;20600;-76
2022/03/04 11:00:29;;;;;;;27.48;20.30;;;;;;;8.67;41.29;99596.25;4973292;28;20279;-77
2022/03/04 11:02:56;;;;;;;28.25;20.40;;;;;;;8.82;41.40;99591.94;4973226;28;20308;-77
2022/03/04 11:05:24;;;;;;;30.38;19.48;;;;;;;9.07;40.54;99590.69;4972689;28;20212;-77
2022/03/04 11:07:51;;;;;;;31.50;20.45;;;;;;;9.05;40.58;99587.22;4973278;28;20284;-77
2022/03/04 11:10:19;;;;;;;30.40;21.75;;;;;;;9.22;40.54;99597.06;4973364;28;20657;-77
2022/03/04 11:12:50;;;;;;;29.95;20.98;;;;;;;9.28;40.52;99594.91;4973372;28;20272;-76
2022/03/04 11:15:17;;;;;;;29.98;20.08;;;;;;;9.34;40.33;99594.59;4973066;28;20208;-76
2022/03/04 11:17:46;;;;;;;27.25;19.92;;;;;;;9.39;40.21;99592.53;4973003;28;20205;-76
2022/03/04 11:20:13;;;;;;;31.55;19.52;;;;;;;9.53;39.98;99597.16;4972397;28;20197;-76
2022/03/04 11:22:43;;;;;;;26.95;19.98;;;;;;;9.04;40.44;99585.47;4973249;28;20191;-77
2022/03/04 11:25:13;;;;;;;31.10;19.98;;;;;;;8.80;41.13;99585.78;4972925;28;20206;-77
2022/03/04 11:27:43;;;;;;;27.40;19.00;;;;;;;9.07;40.87;99569.19;4972757;28;20189;-75